Sioux Lookout Airport
CYXL : rendu visible

Aérodrome :











RETROUVEZ-NOUS SUR...

 
LOGIN :

S'inscrire | Disclaimer

   EN    FR    IT 

 









Légende :    VFR   VFR Marginal   IFR   IFR Intensif   IFR Très Intensif
Visi : 
Plafond : 
>= 8 km
>= 3000ft
5 à 8 km
1000 à 3000 ft
1500m à 5 km
500 à 1000 ft
800 à 1500m
200 à 500 ft
< 800m
< 200 ft
Symboles :   Orages  Brouillard  Fortes neiges  Fortes précipitations  Vent > 20 kt






- Altitude de l'aérodrome : 1258 ft
- Code IATA : YXL


CYXL - Sioux Lookout

DERNIER METAR :
  • 230200Z 31002KT 15SM -SN SCT012 BKN028 M06/M07 A2993 RMK SC3SC4 SLP163

METARs EXPIRÉS :
  • 230133Z 00000KT 15SM -SN SCT012 BKN027 M05/M07 A2991 RMK SC3SC4 SLP158
  • 230100Z 34008KT 15SM -SN OVC012 M04/M07 A2991 RMK ST8 SLP155
  • 230000Z 33006KT 15SM -SN OVC013 M04/M06 A2987 RMK ST8 SLP142

TAF TAF CYXL
Valide du 23 à 02h jusqu'au 23 à 14h UTC


230140Z 2302/2314 VRB03KT P6SM -SN BKN030
TEMPO 2302/2305 3SM -SN BR OVC012
PROB30 2302/2305 OVC006
FM230500 03005KT P6SM OVC012
TEMPO 2305/2314 3SM -SN BR OVC006 RMK NXT FCST BY 230800Z



MET'MAP, la Météo Aéronautique d'un coup d'oeil ! - Copyright ORBIFLY Décembre 2007 - Disclaimer

ORBIFLY MET'MAP TEAM :

Programmation & Développement : Alexandra Zaïnal
Sur une idée originale de : Baudouin d'Aumeries
Assistance à la programmation : Marc-Olivier Méhu
Soutien technique & logistique : Manuel Goepfert

Contact : metmap@orbifly.com




SOURCES & CREDITS :

   NOAA       Earth
Advisory